Terminal Aerodrome Forecast
Issued by NWS

Home | Current Version | Previous Version | Text Only | Print | Product List | Glossary On
Versions: 1 2 3 4 5 6 7 8 9 10 11 12 13 14 15 16
013
FTUS41 KAKQ 222321
TAFPHF
TAF
KPHF 222321Z 2300/2324 10006KT P6SM BKN110
     FM231500 11011KT P6SM SCT050 BKN120=

USA.gov is the U.S. government's official web portal to all federal, state and local government web resources and services.